Time;durP1;ratioP1;P1;durP2;ratioP2;P2;SDS_P1;SDS_P2;PMS_P1;PMS_P2;Temp;Humidity;BMP_temperature;BMP_pressure;BME280_temperature;BME280_humidity;BME280_pressure;Samples;Min_cycle;Max_cycle;Signal;HPM_P1;HPM_P2
2023/09/11 00:01:19;;;;;;;6.90;3.70;;;;;;;18.91;73.32;95223.13;5093422;28;20431;-79
2023/09/11 00:03:49;;;;;;;6.70;4.00;;;;;;;19.03;72.36;95222.56;5092672;28;20934;-79
2023/09/11 00:06:16;;;;;;;6.00;3.60;;;;;;;19.11;72.14;95229.69;5093166;28;20495;-78
2023/09/11 00:08:43;;;;;;;6.07;4.03;;;;;;;19.14;71.12;95234.66;5092644;28;20441;-79
2023/09/11 00:11:10;;;;;;;8.83;3.60;;;;;;;18.97;71.38;95233.91;5092945;28;20434;-79
2023/09/11 00:13:37;;;;;;;5.20;3.07;;;;;;;18.91;72.40;95237.25;5092138;28;20490;-78
2023/09/11 00:16:03;;;;;;;3.93;2.90;;;;;;;18.75;72.71;95232.81;5092602;28;20907;-79
2023/09/11 00:18:30;;;;;;;9.80;3.70;;;;;;;18.77;72.77;95232.63;5040615;28;20799;-79
2023/09/11 00:20:58;;;;;;;6.97;3.97;;;;;;;18.80;73.19;95232.31;5092731;28;20450;-79
2023/09/11 00:23:25;;;;;;;3.70;3.23;;;;;;;18.80;72.83;95219.84;5092671;28;20478;-79
2023/09/11 00:25:52;;;;;;;6.53;3.80;;;;;;;18.80;72.73;95227.00;5095817;28;20454;-79
2023/09/11 00:28:19;;;;;;;3.60;3.30;;;;;;;18.60;73.16;95221.22;5097211;28;20440;-79
2023/09/11 00:30:45;;;;;;;4.00;3.43;;;;;;;18.67;73.55;95211.59;5097723;28;20456;-79
2023/09/11 00:33:12;;;;;;;5.60;4.40;;;;;;;18.60;73.01;95223.88;5097769;28;20500;-79
2023/09/11 00:35:39;;;;;;;8.20;3.57;;;;;;;18.72;73.48;95216.38;5096968;28;20496;-79
2023/09/11 00:38:07;;;;;;;4.63;3.07;;;;;;;18.82;73.29;95217.03;5096988;28;20794;-79
2023/09/11 00:40:34;;;;;;;5.53;3.30;;;;;;;18.88;72.24;95219.00;5096837;28;20524;-79
2023/09/11 00:43:01;;;;;;;4.43;3.27;;;;;;;18.81;71.98;95207.38;5060637;28;20426;-79
2023/09/11 00:45:28;;;;;;;4.13;2.97;;;;;;;18.82;73.08;95211.72;5096519;28;20786;-78
2023/09/11 00:47:55;;;;;;;8.50;3.07;;;;;;;18.78;72.04;95218.34;5096626;28;20450;-79
2023/09/11 00:50:23;;;;;;;5.43;4.43;;;;;;;18.72;72.72;95219.03;5096393;28;20925;-79
2023/09/11 00:52:51;;;;;;;6.27;3.43;;;;;;;18.80;71.64;95217.19;5096276;28;20493;-79
2023/09/11 00:55:20;;;;;;;6.33;3.23;;;;;;;18.77;72.47;95206.06;5096085;28;20440;-79
2023/09/11 00:57:47;;;;;;;6.53;3.70;;;;;;;18.80;72.43;95213.72;5096216;28;20502;-80
2023/09/11 01:00:15;;;;;;;4.20;3.60;;;;;;;18.78;72.27;95208.53;5096409;28;20446;-80
2023/09/11 01:02:42;;;;;;;3.77;3.27;;;;;;;18.62;72.01;95200.66;5096070;28;20444;-80
2023/09/11 01:05:10;;;;;;;5.17;3.10;;;;;;;18.69;72.44;95209.59;5096090;28;20916;-79
2023/09/11 01:07:36;;;;;;;5.93;3.70;;;;;;;18.63;72.10;95210.28;5095116;28;20847;-79
2023/09/11 01:10:06;;;;;;;3.73;3.43;;;;;;;18.22;73.06;95207.72;5096299;28;20204;-79
2023/09/11 01:12:36;;;;;;;7.67;3.30;;;;;;;17.92;74.92;95203.06;5096313;28;20923;-79
2023/09/11 01:15:04;;;;;;;6.40;2.67;;;;;;;17.87;75.38;95203.56;5096328;28;20454;-78
2023/09/11 01:17:39;;;;;;;4.37;3.23;;;;;;;18.04;75.27;95203.56;5096380;28;20451;-79
2023/09/11 01:20:38;;;;;;;4.47;3.17;;;;;;;18.23;74.35;95205.88;5096105;28;20453;-79
2023/09/11 01:23:25;;;;;;;4.40;4.00;;;;;;;18.37;73.92;95210.47;5065770;28;20452;-79
2023/09/11 01:26:19;;;;;;;4.20;3.33;;;;;;;18.47;73.69;95202.31;5096052;28;20790;-79
2023/09/11 01:29:25;;;;;;;4.70;3.00;;;;;;;18.47;74.53;95199.66;5095934;28;20850;-79
2023/09/11 01:31:54;;;;;;;3.30;3.00;;;;;;;18.49;73.43;95203.78;5013694;28;20471;-79
2023/09/11 01:34:21;;;;;;;7.53;3.07;;;;;;;18.55;74.63;95199.66;5013526;28;20487;-79
2023/09/11 01:36:47;;;;;;;4.63;3.17;;;;;;;18.69;74.03;95198.94;5012240;28;20436;-79
2023/09/11 01:39:15;;;;;;;3.83;3.43;;;;;;;18.73;72.64;95200.25;5013696;28;20451;-80
2023/09/11 01:41:45;;;;;;;4.50;3.23;;;;;;;18.68;72.38;95202.59;5013346;28;20959;-79
2023/09/11 01:44:19;;;;;;;3.60;3.30;;;;;;;18.72;72.50;95195.09;5013793;28;20461;-79
2023/09/11 01:46:48;;;;;;;3.63;3.33;;;;;;;18.68;71.56;95199.13;5013428;28;20450;-79
2023/09/11 01:49:17;;;;;;;4.83;3.50;;;;;;;18.62;72.16;95197.97;5013164;28;20450;-79
2023/09/11 01:51:45;;;;;;;3.37;3.07;;;;;;;18.51;72.55;95198.34;5013331;28;20462;-79
2023/09/11 01:54:13;;;;;;;3.80;2.80;;;;;;;18.56;72.93;95190.66;5013061;28;20529;-79
2023/09/11 01:56:40;;;;;;;5.03;3.13;;;;;;;18.37;72.51;95194.53;5013298;28;20553;-79
2023/09/11 01:59:07;;;;;;;5.10;3.77;;;;;;;18.32;73.85;95199.53;5013195;28;20450;-79
2023/09/11 02:01:33;;;;;;;5.87;3.67;;;;;;;18.28;74.92;95195.56;5015228;28;20924;-79
2023/09/11 02:04:01;;;;;;;5.47;3.50;;;;;;;18.31;73.82;95191.75;5095124;28;20445;-79
2023/09/11 02:06:30;;;;;;;5.20;3.67;;;;;;;18.20;74.44;95188.41;5042741;28;20436;-78
2023/09/11 02:08:57;;;;;;;9.57;3.73;;;;;;;18.23;75.19;95189.94;5094989;28;20439;-79
2023/09/11 02:11:24;;;;;;;7.57;3.60;;;;;;;18.27;74.58;95189.44;5042919;28;20441;-79
2023/09/11 02:13:51;;;;;;;3.50;3.20;;;;;;;18.35;74.74;95185.91;5095140;28;20484;-79
2023/09/11 02:16:18;;;;;;;6.10;3.70;;;;;;;18.27;73.76;95183.28;5094975;28;20471;-79
2023/09/11 02:18:45;;;;;;;4.10;3.80;;;;;;;18.24;73.53;95186.28;5094699;28;20791;-79
2023/09/11 02:21:13;;;;;;;5.57;3.73;;;;;;;18.24;73.75;95173.00;5094906;28;20505;-78
2023/09/11 02:23:41;;;;;;;4.60;3.33;;;;;;;18.26;74.00;95173.66;5095016;28;20443;-79
2023/09/11 02:26:08;;;;;;;3.73;3.43;;;;;;;18.33;74.17;95177.28;5059910;28;20527;-79
2023/09/11 02:28:35;;;;;;;6.37;3.93;;;;;;;18.33;73.27;95171.97;5094626;28;20448;-79
2023/09/11 02:31:02;;;;;;;6.83;3.90;;;;;;;18.32;73.37;95169.47;5094493;28;20440;-79
2023/09/11 02:33:29;;;;;;;7.43;3.93;;;;;;;18.22;73.34;95170.50;5094661;28;20544;-79
2023/09/11 02:35:57;;;;;;;8.90;5.10;;;;;;;18.09;73.89;95175.50;5094524;28;20453;-78
2023/09/11 02:38:25;;;;;;;14.30;4.30;;;;;;;17.99;73.86;95169.56;5094367;28;20949;-79
2023/09/11 02:40:55;;;;;;;3.90;3.53;;;;;;;17.89;74.52;95175.03;5094580;28;20469;-79
2023/09/11 02:43:21;;;;;;;13.40;4.77;;;;;;;17.82;75.39;95167.91;5094471;28;20466;-79
2023/09/11 02:45:48;;;;;;;5.37;4.00;;;;;;;17.60;76.14;95177.34;5094305;28;20440;-79
2023/09/11 02:48:15;;;;;;;6.63;3.60;;;;;;;17.44;76.65;95175.53;5094241;28;20444;-79
2023/09/11 02:50:42;;;;;;;9.03;4.17;;;;;;;17.23;76.79;95169.84;5042273;28;20450;-79
2023/09/11 02:53:10;;;;;;;3.70;3.30;;;;;;;17.07;78.21;95172.50;5094423;28;20498;-79
2023/09/11 02:55:39;;;;;;;6.40;4.90;;;;;;;17.08;79.04;95172.34;5094043;28;20981;-79
2023/09/11 02:58:06;;;;;;;4.33;3.43;;;;;;;17.06;78.18;95176.97;5094378;28;20442;-79
2023/09/11 03:00:34;;;;;;;4.43;3.33;;;;;;;17.04;78.42;95171.81;5094046;28;20445;-79
2023/09/11 03:03:01;;;;;;;4.20;3.70;;;;;;;17.02;78.07;95171.13;5094433;28;20454;-79
2023/09/11 03:05:28;;;;;;;3.93;3.53;;;;;;;17.00;78.14;95167.81;5094125;28;20442;-79
2023/09/11 03:07:54;;;;;;;4.53;4.10;;;;;;;16.97;78.32;95164.66;5093912;28;20456;-78
2023/09/11 03:10:22;;;;;;;5.07;4.33;;;;;;;16.96;78.62;95163.00;5094290;28;20444;-79
2023/09/11 03:12:50;;;;;;;6.83;3.70;;;;;;;16.96;78.46;95160.38;5093869;28;20477;-79
2023/09/11 03:15:17;;;;;;;3.73;3.40;;;;;;;16.94;78.74;95165.00;5094116;28;20490;-78
2023/09/11 03:17:44;;;;;;;6.00;4.43;;;;;;;16.93;78.29;95161.53;5093734;28;20440;-78
2023/09/11 03:20:11;;;;;;;8.47;3.90;;;;;;;16.92;78.34;95166.97;5093834;28;20440;-78
2023/09/11 03:22:38;;;;;;;3.90;2.97;;;;;;;16.88;77.79;95165.66;5093762;28;20448;-78
2023/09/11 03:25:05;;;;;;;9.63;3.53;;;;;;;16.87;78.28;95171.94;5058525;28;20442;-78
2023/09/11 03:27:32;;;;;;;8.40;3.67;;;;;;;16.84;78.41;95167.81;5058307;28;20435;-79
2023/09/11 03:30:00;;;;;;;5.70;3.90;;;;;;;16.79;78.21;95164.81;5093631;28;20446;-78
2023/09/11 03:32:27;;;;;;;6.97;3.90;;;;;;;16.76;78.02;95162.44;5093717;28;20436;-78
2023/09/11 03:34:53;;;;;;;6.23;3.67;;;;;;;16.63;78.34;95164.72;5093564;28;20996;-79
2023/09/11 03:37:20;;;;;;;4.23;3.50;;;;;;;16.58;78.88;95174.97;5093659;28;20511;-79
2023/09/11 03:39:47;;;;;;;4.33;3.90;;;;;;;16.54;78.60;95169.16;5093427;28;20457;-79
2023/09/11 03:42:14;;;;;;;5.83;4.00;;;;;;;16.49;78.74;95167.97;5041717;28;20792;-79
2023/09/11 03:44:41;;;;;;;6.93;4.07;;;;;;;16.40;78.86;95185.63;5093568;28;20446;-78
2023/09/11 03:47:09;;;;;;;4.00;3.60;;;;;;;16.39;79.23;95179.50;5093273;28;20921;-79
2023/09/11 03:49:38;;;;;;;10.93;6.13;;;;;;;16.26;79.75;95170.34;5093317;28;20450;-79
2023/09/11 03:52:04;;;;;;;5.60;3.50;;;;;;;16.25;80.11;95174.00;5057604;28;20539;-78
2023/09/11 03:54:31;;;;;;;3.83;3.53;;;;;;;16.20;79.74;95174.47;5093102;28;20489;-78
2023/09/11 03:56:58;;;;;;;4.00;3.60;;;;;;;16.19;80.52;95177.25;5093420;28;20926;-78
2023/09/11 03:59:25;;;;;;;9.00;3.47;;;;;;;16.10;80.56;95171.91;5092406;28;20447;-79
2023/09/11 04:01:52;;;;;;;3.90;3.60;;;;;;;16.11;80.20;95178.03;5093276;28;20865;-78
2023/09/11 04:04:20;;;;;;;5.00;4.30;;;;;;;16.16;80.68;95182.84;5040263;28;20436;-78
2023/09/11 04:06:46;;;;;;;5.47;4.20;;;;;;;16.18;80.49;95186.16;5092804;28;20439;-77
2023/09/11 04:09:13;;;;;;;4.00;3.57;;;;;;;17.22;84.73;95174.34;5093091;28;20440;-76
2023/09/11 04:11:40;;;;;;;4.13;3.73;;;;;;;18.32;77.74;95177.44;5093143;28;20444;-75
2023/09/11 04:14:07;;;;;;;6.00;4.10;;;;;;;18.21;71.53;95173.31;5092971;28;20486;-79
2023/09/11 04:16:34;;;;;;;9.93;3.87;;;;;;;17.98;71.37;95180.34;5080440;28;20502;-79
2023/09/11 04:19:00;;;;;;;7.90;3.93;;;;;;;17.75;72.00;95182.84;5072646;28;20947;-79
2023/09/11 04:21:29;;;;;;;7.57;3.23;;;;;;;17.65;72.49;95188.31;5084187;28;20433;-79
2023/09/11 04:23:55;;;;;;;5.27;3.53;;;;;;;17.59;73.29;95186.28;5092940;28;20443;-79
2023/09/11 04:26:22;;;;;;;13.57;3.63;;;;;;;17.71;72.59;95187.66;5092690;28;20456;-78
2023/09/11 04:28:49;;;;;;;6.30;3.80;;;;;;;17.94;72.08;95193.97;5092824;28;20578;-80
2023/09/11 04:31:16;;;;;;;6.93;3.63;;;;;;;17.97;71.18;95198.09;5092833;28;20911;-79
2023/09/11 04:33:43;;;;;;;7.00;3.80;;;;;;;17.90;70.75;95191.78;5093470;28;20503;-80
2023/09/11 04:36:11;;;;;;;6.03;3.87;;;;;;;17.85;70.96;95191.47;5092615;28;20442;-80
2023/09/11 04:38:39;;;;;;;4.80;3.27;;;;;;;17.85;71.00;95194.13;5092441;28;20447;-79
2023/09/11 04:41:06;;;;;;;4.00;3.70;;;;;;;17.80;71.23;95197.28;5092885;28;20851;-77
2023/09/11 04:43:33;;;;;;;7.60;6.07;;;;;;;17.73;71.49;95201.59;5056677;28;20450;-80
2023/09/11 04:46:00;;;;;;;10.63;6.47;;;;;;;17.75;72.68;95204.91;5056646;28;20448;-79
2023/09/11 04:48:27;;;;;;;7.77;4.70;;;;;;;17.82;73.18;95210.38;5092532;28;20799;-81
2023/09/11 04:50:53;;;;;;;7.57;4.73;;;;;;;17.76;75.41;95193.31;5092214;28;20450;-80
2023/09/11 04:53:20;;;;;;;8.70;4.20;;;;;;;17.82;74.54;95197.09;5091957;28;20481;-77
2023/09/11 04:55:49;;;;;;;5.10;3.57;;;;;;;17.84;73.96;95198.59;5089233;28;20485;-79
2023/09/11 04:58:16;;;;;;;6.83;3.53;;;;;;;17.84;72.24;95203.09;5083195;28;20974;-80
2023/09/11 05:00:43;;;;;;;5.70;4.90;;;;;;;17.89;72.13;95209.53;5086684;28;20860;-78
2023/09/11 05:03:09;;;;;;;5.73;4.20;;;;;;;18.06;71.78;95202.41;5083923;28;20499;-79
2023/09/11 05:05:40;;;;;;;5.27;4.03;;;;;;;18.35;70.78;95207.16;5081097;28;20953;-78
2023/09/11 05:08:07;;;;;;;9.93;3.80;;;;;;;18.69;69.35;95208.75;5090032;28;20457;-78
2023/09/11 05:10:36;;;;;;;6.17;4.03;;;;;;;19.13;67.97;95201.09;5092927;28;20445;-79
2023/09/11 05:13:04;;;;;;;7.97;3.90;;;;;;;19.73;67.72;95197.72;5085879;28;20501;-78
2023/09/11 05:15:31;;;;;;;8.87;3.77;;;;;;;20.39;67.97;95196.94;5040168;28;20828;-78
2023/09/11 05:17:58;;;;;;;7.37;3.90;;;;;;;21.02;63.14;95190.19;5096003;28;20436;-78
2023/09/11 05:20:25;;;;;;;7.30;3.47;;;;;;;21.72;62.38;95206.63;5043710;28;20810;-79
2023/09/11 05:22:51;;;;;;;6.27;3.80;;;;;;;22.17;59.17;95190.19;5095780;28;20437;-79
2023/09/11 05:25:18;;;;;;;4.77;3.47;;;;;;;22.55;58.80;95195.16;5081682;28;20469;-78
2023/09/11 05:27:46;;;;;;;6.10;4.00;;;;;;;22.96;57.38;95192.56;5090156;28;20445;-79
2023/09/11 05:30:14;;;;;;;5.30;3.77;;;;;;;23.24;56.18;95194.31;5084010;28;20463;-79
2023/09/11 05:32:41;;;;;;;6.70;3.20;;;;;;;23.51;54.14;95189.88;5075581;28;20488;-81
2023/09/11 05:35:09;;;;;;;3.87;3.57;;;;;;;23.69;53.66;95195.47;5076396;28;20488;-80
2023/09/11 05:37:35;;;;;;;5.73;3.27;;;;;;;23.94;51.64;95193.03;5090865;28;20837;-80
2023/09/11 05:40:06;;;;;;;4.47;3.07;;;;;;;24.19;51.29;95187.91;5095583;28;20476;-80
2023/09/11 05:42:33;;;;;;;4.53;2.90;;;;;;;24.33;50.81;95194.94;5094752;28;21026;-80
2023/09/11 05:45:00;;;;;;;5.70;3.20;;;;;;;24.45;50.45;95195.97;5094918;28;20454;-80
2023/09/11 05:47:28;;;;;;;5.23;3.23;;;;;;;24.74;49.26;95196.53;5094936;28;20968;-80
2023/09/11 05:50:00;;;;;;;4.10;3.33;;;;;;;24.79;50.28;95188.66;5094947;28;20806;-80
2023/09/11 05:52:26;;;;;;;12.03;3.47;;;;;;;24.91;49.08;95185.13;5095060;28;20483;-80
2023/09/11 05:54:53;;;;;;;7.67;3.23;;;;;;;25.13;47.96;95182.19;5094763;28;20488;-80
2023/09/11 05:57:20;;;;;;;5.00;4.00;;;;;;;25.38;47.54;95188.47;5094604;28;20470;-81
2023/09/11 05:59:47;;;;;;;4.67;3.40;;;;;;;25.57;48.13;95175.97;5094659;28;20444;-80
2023/09/11 06:02:14;;;;;;;5.10;3.40;;;;;;;25.85;47.16;95181.00;5094791;28;20443;-80
2023/09/11 06:04:42;;;;;;;3.63;3.33;;;;;;;25.97;45.38;95179.25;5094700;28;20451;-80
2023/09/11 06:07:09;;;;;;;4.07;3.63;;;;;;;25.82;45.88;95176.88;5095085;28;20808;-81
2023/09/11 06:09:36;;;;;;;4.00;3.47;;;;;;;25.73;45.12;95180.84;5094488;28;20440;-81
2023/09/11 06:12:02;;;;;;;3.43;3.13;;;;;;;25.86;45.24;95182.66;5094801;28;20440;-80
2023/09/11 06:14:29;;;;;;;2.93;2.73;;;;;;;25.68;45.34;95174.50;5094421;28;20487;-80
2023/09/11 06:16:56;;;;;;;4.03;3.00;;;;;;;25.58;46.06;95189.19;5094391;28;20933;-81
2023/09/11 06:19:23;;;;;;;18.27;3.70;;;;;;;25.26;47.15;95193.72;5094455;28;20443;-80
2023/09/11 06:21:51;;;;;;;7.03;3.70;;;;;;;25.42;47.72;95191.56;5058563;28;20431;-80
2023/09/11 06:24:18;;;;;;;9.00;4.23;;;;;;;25.55;47.70;95203.06;5094040;28;20466;-80
2023/09/11 06:26:45;;;;;;;8.13;3.80;;;;;;;25.76;47.38;95193.91;5094673;28;20845;-80
2023/09/11 06:29:12;;;;;;;4.93;3.60;;;;;;;25.86;46.95;95207.69;5094385;28;20527;-80
2023/09/11 06:31:39;;;;;;;3.30;3.00;;;;;;;25.58;46.71;95199.97;5094436;28;20834;-80
2023/09/11 06:34:06;;;;;;;4.50;3.97;;;;;;;25.69;46.37;95195.78;5094319;28;20447;-80
2023/09/11 06:36:33;;;;;;;4.90;3.57;;;;;;;25.72;47.24;95195.34;5094062;28;20523;-80
2023/09/11 06:39:01;;;;;;;7.13;3.67;;;;;;;25.80;46.99;95195.09;5093895;28;20451;-80
2023/09/11 06:41:28;;;;;;;6.07;3.27;;;;;;;25.44;47.98;95198.34;5041872;28;20443;-80
2023/09/11 06:43:54;;;;;;;11.33;3.80;;;;;;;25.29;49.08;95206.72;5094033;28;20444;-80
2023/09/11 06:46:21;;;;;;;4.60;4.03;;;;;;;25.32;48.91;95206.28;5094020;28;20436;-80
2023/09/11 06:48:48;;;;;;;6.87;4.07;;;;;;;25.24;49.02;95211.09;5093878;28;20447;-80
2023/09/11 06:51:15;;;;;;;7.23;3.73;;;;;;;25.21;48.69;95206.97;5093432;28;20444;-80
2023/09/11 06:53:41;;;;;;;5.20;3.53;;;;;;;24.73;49.82;95200.25;5093728;28;20883;-80
2023/09/11 06:56:10;;;;;;;4.73;3.60;;;;;;;24.35;49.59;95211.66;5093547;28;20484;-79
2023/09/11 06:58:38;;;;;;;5.40;3.73;;;;;;;24.67;50.59;95202.75;5093488;28;20454;-80
2023/09/11 07:01:05;;;;;;;4.33;3.60;;;;;;;25.09;50.27;95199.75;5093757;28;20512;-79
2023/09/11 07:03:32;;;;;;;5.30;4.03;;;;;;;25.23;49.04;95198.69;5058097;28;20435;-80
2023/09/11 07:05:58;;;;;;;4.57;3.80;;;;;;;25.45;48.07;95196.53;5041248;28;20428;-80
2023/09/11 07:08:25;;;;;;;6.53;3.53;;;;;;;25.62;47.83;95197.66;5093291;28;20930;-80
2023/09/11 07:10:52;;;;;;;4.83;3.57;;;;;;;25.77;47.52;95194.72;5041463;28;20520;-80
2023/09/11 07:13:20;;;;;;;6.80;3.87;;;;;;;25.43;47.43;95188.66;5093343;28;20440;-80
2023/09/11 07:15:55;;;;;;;4.27;3.90;;;;;;;25.33;49.09;95183.75;5093101;28;20849;-80
2023/09/11 07:18:22;;;;;;;6.50;3.90;;;;;;;25.49;49.12;95184.31;5093249;28;20530;-80
2023/09/11 07:20:51;;;;;;;17.13;3.93;;;;;;;25.48;48.14;95186.16;5041361;28;20447;-80
2023/09/11 07:23:17;;;;;;;7.23;3.73;;;;;;;25.42;48.09;95178.13;5092925;28;20440;-80
2023/09/11 07:25:44;;;;;;;9.63;3.90;;;;;;;25.09;47.61;95187.16;5093223;28;20455;-80
2023/09/11 07:28:14;;;;;;;6.80;3.83;;;;;;;24.95;48.07;95190.91;5092960;28;20455;-80
2023/09/11 07:30:44;;;;;;;7.20;3.47;;;;;;;24.96;48.44;95181.81;5093077;28;20461;-80
2023/09/11 07:33:11;;;;;;;4.40;3.57;;;;;;;25.01;48.94;95179.34;5092737;28;20930;-80
2023/09/11 07:35:38;;;;;;;4.57;3.50;;;;;;;25.06;49.17;95181.38;5092352;28;20483;-80
2023/09/11 07:38:06;;;;;;;6.60;3.63;;;;;;;25.29;49.75;95177.16;5093047;28;20446;-80
2023/09/11 07:40:33;;;;;;;7.20;3.57;;;;;;;25.49;48.08;95173.56;5093102;28;20483;-80
2023/09/11 07:43:00;;;;;;;4.10;3.53;;;;;;;25.70;47.87;95178.59;5092735;28;20933;-80
2023/09/11 07:45:27;;;;;;;5.30;2.90;;;;;;;26.12;47.55;95170.88;5092621;28;20448;-80
2023/09/11 07:47:55;;;;;;;9.90;4.20;;;;;;;26.34;46.52;95174.03;5092772;28;21636;-80
2023/09/11 07:50:22;;;;;;;8.10;4.20;;;;;;;26.19;45.49;95177.03;5092912;28;20792;-80
2023/09/11 07:52:50;;;;;;;8.50;4.40;;;;;;;26.28;45.92;95175.69;5092972;28;20494;-80
2023/09/11 07:55:17;;;;;;;4.10;3.70;;;;;;;26.29;45.86;95176.50;5092715;28;20494;-80
2023/09/11 07:57:44;;;;;;;10.50;4.07;;;;;;;26.38;45.87;95170.69;5092513;28;20440;-79
2023/09/11 08:00:12;;;;;;;4.37;3.90;;;;;;;26.27;44.83;95165.97;5092336;28;20444;-80
2023/09/11 08:02:38;;;;;;;17.37;4.30;;;;;;;26.45;44.86;95171.44;5007935;28;20444;-79
2023/09/11 08:05:07;;;;;;;5.67;3.70;;;;;;;26.74;45.26;95171.78;5092771;28;20447;-79
2023/09/11 08:07:34;;;;;;;11.83;4.30;;;;;;;26.79;43.64;95171.94;5092600;28;20436;-80
2023/09/11 08:10:01;;;;;;;10.63;4.37;;;;;;;26.80;44.17;95171.69;5092436;28;20443;-79
2023/09/11 08:12:27;;;;;;;9.80;4.10;;;;;;;27.05;44.43;95168.16;5040078;28;20428;-80
2023/09/11 08:14:54;;;;;;;10.23;4.00;;;;;;;27.28;42.61;95172.84;5092365;28;20997;-80
2023/09/11 08:17:21;;;;;;;8.23;4.20;;;;;;;27.15;42.57;95160.34;5092388;28;20443;-80
2023/09/11 08:19:49;;;;;;;7.83;4.23;;;;;;;27.20;42.39;95162.38;5092301;28;20447;-80
2023/09/11 08:22:17;;;;;;;6.77;4.50;;;;;;;27.19;41.04;95155.34;5092177;28;20535;-80
2023/09/11 08:24:44;;;;;;;11.00;3.80;;;;;;;27.24;41.15;95152.78;5092529;28;20444;-80
2023/09/11 08:27:11;;;;;;;5.93;4.00;;;;;;;27.05;39.94;95158.19;5092188;28;20436;-79
2023/09/11 08:29:38;;;;;;;6.37;4.10;;;;;;;27.13;40.57;95160.56;5092395;28;20447;-80
2023/09/11 08:32:05;;;;;;;6.60;3.70;;;;;;;27.12;40.85;95150.84;5092158;28;20444;-80
2023/09/11 08:34:32;;;;;;;9.10;4.90;;;;;;;26.88;40.48;95150.91;5092258;28;20435;-80
2023/09/11 08:36:59;;;;;;;8.30;4.07;;;;;;;27.04;40.57;95145.78;5093122;28;20483;-79
2023/09/11 08:39:27;;;;;;;6.87;4.20;;;;;;;27.24;40.04;95150.09;5057033;28;20501;-80
2023/09/11 08:41:58;;;;;;;5.00;3.50;;;;;;;27.40;40.69;95152.16;5091965;28;20432;-80
2023/09/11 08:44:25;;;;;;;5.83;4.40;;;;;;;27.04;40.89;95144.94;5092341;28;20440;-80
2023/09/11 08:46:55;;;;;;;4.83;3.77;;;;;;;27.07;39.93;95144.50;5095235;28;20439;-80
2023/09/11 08:49:26;;;;;;;4.93;3.80;;;;;;;27.22;41.45;95138.72;5095987;28;20458;-80
2023/09/11 08:51:54;;;;;;;6.73;3.87;;;;;;;27.05;41.38;95147.41;5095751;28;20478;-80
2023/09/11 08:54:25;;;;;;;8.70;3.97;;;;;;;26.82;40.95;95144.53;5095821;28;20452;-79
2023/09/11 08:56:56;;;;;;;4.40;3.50;;;;;;;26.97;40.32;95136.94;5095731;28;20514;-80
2023/09/11 08:59:26;;;;;;;3.93;3.63;;;;;;;26.83;41.61;95136.25;5095702;28;20448;-80
2023/09/11 09:01:53;;;;;;;4.47;3.80;;;;;;;26.67;40.83;95127.94;5095751;28;20452;-80
2023/09/11 09:04:21;;;;;;;11.23;4.53;;;;;;;26.50;40.62;95133.09;5095550;28;20462;-80
2023/09/11 09:06:48;;;;;;;5.17;3.90;;;;;;;26.80;41.15;95122.41;5095254;28;20467;-80
2023/09/11 09:09:16;;;;;;;17.60;4.07;;;;;;;27.08;41.31;95128.09;5095329;28;20811;-80
2023/09/11 09:11:48;;;;;;;8.83;4.80;;;;;;;26.88;40.85;95122.09;5026955;28;20447;-80
2023/09/11 09:14:17;;;;;;;4.83;4.00;;;;;;;27.00;39.64;95125.72;5095216;28;20444;-79
2023/09/11 09:16:45;;;;;;;5.43;4.17;;;;;;;26.56;40.23;95126.81;5095386;28;20487;-80
2023/09/11 09:19:12;;;;;;;8.87;4.50;;;;;;;26.81;40.14;95118.66;5095012;28;20440;-80
2023/09/11 09:22:08;;;;;;;10.23;4.27;;;;;;;26.43;40.86;95114.31;5095280;28;21037;-80
2023/09/11 09:24:36;;;;;;;14.00;5.27;;;;;;;26.60;40.99;95117.25;5094995;28;20764;-80
2023/09/11 09:27:05;;;;;;;4.23;3.83;;;;;;;26.35;41.99;95106.53;5095014;28;20841;-80
2023/09/11 09:29:36;;;;;;;7.67;4.50;;;;;;;26.13;40.94;95099.91;5094969;28;20443;-80
2023/09/11 09:32:03;;;;;;;7.30;4.17;;;;;;;26.33;41.30;95097.03;5095635;28;20440;-79
2023/09/11 09:34:32;;;;;;;5.77;4.00;;;;;;;26.49;40.63;95108.03;5094656;28;20801;-80
2023/09/11 09:36:59;;;;;;;10.50;4.23;;;;;;;26.44;40.14;95099.81;5095008;28;20518;-80
2023/09/11 09:39:28;;;;;;;6.00;4.30;;;;;;;26.39;40.12;95090.78;5094795;28;20451;-79
2023/09/11 09:41:56;;;;;;;5.10;3.80;;;;;;;26.50;40.40;95081.94;5043510;28;20451;-80
2023/09/11 09:44:29;;;;;;;6.40;3.87;;;;;;;26.21;40.81;95084.28;5094946;28;20455;-79
2023/09/11 09:47:06;;;;;;;8.60;4.50;;;;;;;26.42;41.71;95080.38;5094934;28;20436;-79
2023/09/11 09:49:43;;;;;;;5.97;3.87;;;;;;;26.48;39.74;95081.34;5094730;28;20440;-80
2023/09/11 09:52:09;;;;;;;6.90;3.90;;;;;;;25.85;39.66;95073.44;5094654;28;20987;-80
2023/09/11 09:54:42;;;;;;;5.30;4.00;;;;;;;25.90;41.54;95077.13;5095049;28;20452;-80
2023/09/11 09:57:11;;;;;;;6.07;3.80;;;;;;;26.03;41.01;95072.69;5093736;28;20487;-80
2023/09/11 09:59:38;;;;;;;8.57;4.20;;;;;;;26.26;40.56;95078.22;5094268;28;20472;-80
2023/09/11 10:02:10;;;;;;;10.37;3.90;;;;;;;26.55;41.76;95068.63;5094342;28;20472;-79
2023/09/11 10:04:37;;;;;;;11.93;4.90;;;;;;;26.18;39.61;95070.44;5094692;28;20468;-80
2023/09/11 10:07:04;;;;;;;4.90;3.30;;;;;;;26.19;39.93;95070.22;5094384;28;20926;-80
2023/09/11 10:09:31;;;;;;;8.63;4.50;;;;;;;26.08;40.26;95059.38;5094259;28;20481;-79
2023/09/11 10:12:03;;;;;;;9.37;3.73;;;;;;;25.90;40.09;95050.22;5094129;28;20439;-81
2023/09/11 10:14:30;;;;;;;6.67;4.10;;;;;;;26.06;40.52;95054.25;5094331;28;20440;-79
2023/09/11 10:16:59;;;;;;;4.97;4.00;;;;;;;26.14;40.54;95048.56;5094023;28;20483;-81
2023/09/11 10:19:30;;;;;;;9.23;4.13;;;;;;;25.80;41.49;95055.31;5094024;28;20869;-81
2023/09/11 10:21:59;;;;;;;10.23;3.87;;;;;;;25.84;40.94;95048.44;5093936;28;20440;-79
2023/09/11 10:24:26;;;;;;;5.57;3.70;;;;;;;25.95;40.05;95046.88;5094059;28;20943;-79
2023/09/11 10:26:57;;;;;;;3.73;3.23;;;;;;;26.15;39.56;95041.31;5094184;28;20500;-79
2023/09/11 10:29:37;;;;;;;4.03;3.73;;;;;;;26.34;39.78;95043.00;5094048;28;20449;-80
2023/09/11 10:32:07;;;;;;;8.70;4.90;;;;;;;26.07;40.72;95049.69;5093781;28;20444;-80
2023/09/11 10:34:38;;;;;;;7.83;3.70;;;;;;;26.29;41.28;95041.97;5039737;28;20984;-79
2023/09/11 10:37:06;;;;;;;6.40;4.67;;;;;;;26.41;40.71;95032.16;5067028;28;21051;-79
2023/09/11 10:39:37;;;;;;;4.10;3.80;;;;;;;26.54;40.08;95035.50;5073983;28;20445;-79
2023/09/11 10:42:04;;;;;;;8.73;4.43;;;;;;;26.72;39.15;95028.47;5074010;28;20520;-78
2023/09/11 10:44:36;;;;;;;7.37;3.83;;;;;;;26.79;39.27;95024.63;5074435;28;20445;-79
2023/09/11 10:47:04;;;;;;;5.43;3.63;;;;;;;26.78;37.86;95024.88;5074771;28;20444;-78
2023/09/11 10:49:37;;;;;;;5.30;3.70;;;;;;;26.45;38.32;95020.72;5083630;28;20523;-78
2023/09/11 10:52:07;;;;;;;4.70;3.37;;;;;;;26.41;39.08;95011.47;5079239;28;20452;-78
2023/09/11 10:54:35;;;;;;;6.40;4.13;;;;;;;26.49;38.71;95016.53;5093546;28;20444;-78
2023/09/11 10:57:02;;;;;;;6.23;3.50;;;;;;;26.47;38.88;95010.56;5093647;28;20487;-79
2023/09/11 10:59:29;;;;;;;7.00;3.50;;;;;;;26.47;39.44;95013.25;5093386;28;20436;-79
2023/09/11 11:01:57;;;;;;;7.53;3.17;;;;;;;26.46;37.12;95010.78;5093251;28;20471;-78
2023/09/11 11:04:25;;;;;;;5.33;3.20;;;;;;;26.64;37.84;94999.19;5093441;28;20929;-79
2023/09/11 11:06:57;;;;;;;5.57;4.27;;;;;;;26.77;37.99;95012.47;5093443;28;20526;-78
2023/09/11 11:09:26;;;;;;;3.40;2.83;;;;;;;26.36;39.50;95005.94;5093321;28;20436;-79
2023/09/11 11:11:57;;;;;;;7.33;3.70;;;;;;;26.28;38.91;95002.66;5093503;28;20443;-77
2023/09/11 11:14:24;;;;;;;8.13;3.50;;;;;;;26.28;38.30;94998.09;5093201;28;20479;-78
2023/09/11 11:17:00;;;;;;;6.07;3.97;;;;;;;25.99;39.25;95001.53;5093320;28;20487;-78
2023/09/11 11:19:29;;;;;;;8.03;4.03;;;;;;;25.78;39.14;95000.09;5093092;28;20443;-80
2023/09/11 11:21:58;;;;;;;7.80;3.63;;;;;;;26.00;39.13;94995.09;5092834;28;20510;-79
2023/09/11 11:24:27;;;;;;;7.03;4.13;;;;;;;26.23;38.53;94989.91;5081481;28;20437;-79
2023/09/11 11:26:58;;;;;;;10.27;3.73;;;;;;;26.39;37.65;94989.34;5072859;28;20452;-79
2023/09/11 11:29:27;;;;;;;4.13;3.50;;;;;;;26.44;39.00;94981.41;5072281;28;20441;-78
2023/09/11 11:31:57;;;;;;;4.83;3.33;;;;;;;26.40;35.84;94990.16;5072467;28;20480;-79
2023/09/11 11:34:27;;;;;;;5.00;3.40;;;;;;;26.62;37.93;94990.50;5022194;28;20445;-78
2023/09/11 11:36:57;;;;;;;4.60;3.63;;;;;;;26.77;38.93;94990.91;5072307;28;20491;-78